Terminal Aerodrome Forecast
Issued by NWS

Home | Current Version | Previous Version | Text Only | Print | Product List | Glossary On
Versions: 1 2 3 4 5 6 7 8 9 10 11 12 13 14 15 16 17 18
000
FTUS44 KLIX 281129
TAFMSY
TAF
KMSY 281129Z 2812/2912 33003KT P6SM FEW015 FEW250
     FM281500 09006KT P6SM SCT040
     FM290100 00000KT P6SM SKC
      TEMPO 2908/2912 5SM BR BKN005=

USA.gov is the U.S. government's official web portal to all federal, state and local government web resources and services.